createdAt,value
2023-02-11T00:27:13.999Z,47
2023-02-11T00:55:41.725Z,48
2023-02-11T01:23:57.368Z,49
2023-02-11T01:52:10.303Z,44
2023-02-11T02:20:32.746Z,42
2023-02-11T02:48:55.458Z,42
2023-02-11T03:17:18.396Z,44
2023-02-11T03:45:35.418Z,42
2023-02-11T04:13:51.014Z,44
2023-02-11T04:42:13.975Z,43
2023-02-11T05:10:35.282Z,41
2023-02-11T05:38:52.490Z,41
2023-02-11T06:07:09.775Z,41
2023-02-11T06:35:35.723Z,40
2023-02-11T07:04:02.031Z,38
2023-02-11T07:32:21.634Z,40
2023-02-11T08:00:41.964Z,44
2023-02-11T08:29:05.108Z,41
2023-02-11T08:58:06.480Z,35
2023-02-11T09:26:09.281Z,44
2023-02-11T09:54:16.432Z,59
2023-02-11T10:22:32.117Z,69
2023-02-11T10:51:27.364Z,59
2023-02-11T11:19:54.597Z,59
2023-02-11T11:48:14.621Z,61
2023-02-11T12:16:28.849Z,50
2023-02-11T12:44:37.789Z,44
2023-02-11T13:12:59.605Z,36
2023-02-11T13:41:46.508Z,27
2023-02-11T14:10:41.756Z,34
2023-02-11T14:39:38.668Z,41
2023-02-11T15:08:37.445Z,43
2023-02-11T15:37:35.718Z,43
2023-02-11T16:06:25.706Z,45
2023-02-11T16:35:13.733Z,47
2023-02-11T17:04:01.974Z,53
2023-02-11T17:32:20.868Z,55
2023-02-11T18:00:38.563Z,48
2023-02-11T18:28:52.354Z,51
2023-02-11T18:57:02.772Z,65
2023-02-11T19:25:27.292Z,65
2023-02-11T19:54:19.250Z,59
2023-02-11T20:23:07.682Z,52
2023-02-11T20:52:04.601Z,49
2023-02-11T21:20:58.235Z,48
2023-02-11T21:50:00.255Z,46
2023-02-11T22:18:54.142Z,41
2023-02-11T22:47:41.932Z,44
2023-02-11T23:16:25.677Z,37
2023-02-11T23:45:17.937Z,35
